createdAt,value
2022-12-26T00:00:24.033Z,0.00
2022-12-26T00:01:24.030Z,0.00
2022-12-26T00:02:28.442Z,0.00
2022-12-26T00:03:24.207Z,0.00
2022-12-26T00:04:48.559Z,0.00
2022-12-26T00:05:24.949Z,0.00
2022-12-26T00:06:23.917Z,0.00
2022-12-26T00:07:23.929Z,0.00
2022-12-26T00:08:23.979Z,0.00
2022-12-26T00:09:23.888Z,0.00
2022-12-26T00:10:23.887Z,0.00
2022-12-26T00:11:23.875Z,0.00
2022-12-26T00:12:23.853Z,0.00
2022-12-26T00:13:40.392Z,0.00
2022-12-26T00:14:24.866Z,0.00
2022-12-26T00:15:23.827Z,0.00
2022-12-26T00:16:23.868Z,0.00
2022-12-26T00:17:23.811Z,0.00
2022-12-26T00:18:23.796Z,0.00
2022-12-26T00:19:23.975Z,0.00
2022-12-26T00:20:23.776Z,0.00
2022-12-26T00:21:23.746Z,0.00
2022-12-26T00:22:23.746Z,0.00
2022-12-26T00:23:23.738Z,0.00
2022-12-26T00:24:23.715Z,0.00
2022-12-26T00:25:23.749Z,0.00
2022-12-26T00:26:23.691Z,0.00
2022-12-26T00:27:23.688Z,0.00
2022-12-26T00:28:23.677Z,0.00
2022-12-26T00:29:23.666Z,0.00
2022-12-26T00:30:23.637Z,0.00
2022-12-26T00:31:23.758Z,0.00
2022-12-26T00:32:23.622Z,0.00
2022-12-26T00:33:23.619Z,0.00
2022-12-26T00:34:23.592Z,0.00
2022-12-26T00:35:23.608Z,0.00
2022-12-26T00:36:23.708Z,0.00
2022-12-26T00:37:23.570Z,0.00
2022-12-26T00:38:23.591Z,0.00
2022-12-26T00:39:23.550Z,0.00
2022-12-26T00:40:23.525Z,0.00
2022-12-26T00:41:23.538Z,0.00
2022-12-26T00:42:23.519Z,0.00
2022-12-26T00:43:23.490Z,0.00
2022-12-26T00:44:23.493Z,0.00
2022-12-26T00:45:23.490Z,0.00
2022-12-26T00:46:23.499Z,0.00
2022-12-26T00:47:23.480Z,0.00
2022-12-26T00:48:23.446Z,0.00
2022-12-26T00:49:23.421Z,0.00
2022-12-26T00:50:23.469Z,0.00
2022-12-26T00:51:23.414Z,0.00
2022-12-26T00:52:23.378Z,0.00
2022-12-26T00:53:23.492Z,0.00
2022-12-26T00:54:23.361Z,0.00
2022-12-26T00:55:23.351Z,0.00
2022-12-26T00:56:23.368Z,0.00
2022-12-26T00:57:23.350Z,0.00
2022-12-26T00:58:23.342Z,0.00
2022-12-26T00:59:23.354Z,0.00
2022-12-26T01:00:23.303Z,0.00
2022-12-26T01:01:23.570Z,0.00
2022-12-26T01:02:23.387Z,0.00
2022-12-26T01:03:23.292Z,0.00
2022-12-26T01:04:23.250Z,0.00
2022-12-26T01:05:23.255Z,0.00
2022-12-26T01:06:23.236Z,0.00
2022-12-26T01:07:23.240Z,0.00
2022-12-26T01:08:24.888Z,0.00
2022-12-26T01:09:23.188Z,0.00
2022-12-26T01:10:23.210Z,0.00
2022-12-26T01:11:23.173Z,0.00
2022-12-26T01:12:23.181Z,0.00
2022-12-26T01:13:23.153Z,0.00
2022-12-26T01:14:23.129Z,0.00
2022-12-26T01:15:23.113Z,0.00
2022-12-26T01:16:23.167Z,0.00
2022-12-26T01:17:23.111Z,0.00
2022-12-26T01:18:23.105Z,0.00
2022-12-26T01:19:23.076Z,0.00
2022-12-26T01:20:23.119Z,0.00
2022-12-26T01:21:23.037Z,0.00
2022-12-26T01:22:23.067Z,0.00
2022-12-26T01:23:23.036Z,0.00
2022-12-26T01:24:23.037Z,0.00
2022-12-26T01:25:23.007Z,0.00
2022-12-26T01:26:23.037Z,0.00
2022-12-26T01:27:22.979Z,0.00
2022-12-26T01:28:23.005Z,0.00
2022-12-26T01:29:22.954Z,0.00
2022-12-26T01:30:22.945Z,0.00
2022-12-26T01:31:22.994Z,0.00
2022-12-26T01:32:22.918Z,0.00
2022-12-26T01:33:22.919Z,0.00
2022-12-26T01:34:23.044Z,0.00
2022-12-26T01:35:22.889Z,0.00
2022-12-26T01:36:23.600Z,0.00
2022-12-26T01:37:22.861Z,0.00
2022-12-26T01:38:22.865Z,0.00
2022-12-26T01:39:22.840Z,0.00
2022-12-26T01:40:22.888Z,0.00
2022-12-26T01:41:22.819Z,0.00
2022-12-26T01:42:22.822Z,0.00
2022-12-26T01:43:22.793Z,0.00
2022-12-26T01:44:22.782Z,0.00
2022-12-26T01:45:22.768Z,0.00
2022-12-26T01:46:22.903Z,0.00
2022-12-26T01:47:22.746Z,0.00
2022-12-26T01:48:22.740Z,0.00
2022-12-26T01:49:22.713Z,0.00
2022-12-26T01:50:22.726Z,0.00
2022-12-26T01:51:22.723Z,0.00
2022-12-26T01:52:22.682Z,0.00
2022-12-26T01:53:22.692Z,0.00
2022-12-26T01:54:40.219Z,0.00
2022-12-26T01:55:23.645Z,0.00
2022-12-26T01:56:22.634Z,0.00
2022-12-26T01:57:22.653Z,0.00
2022-12-26T01:58:22.627Z,0.00
2022-12-26T01:59:22.604Z,0.00
2022-12-26T02:00:22.588Z,0.00
2022-12-26T02:01:22.678Z,0.00
2022-12-26T02:02:22.725Z,0.00
2022-12-26T02:03:22.627Z,0.00
2022-12-26T02:04:22.581Z,0.00
2022-12-26T02:05:22.527Z,0.00
2022-12-26T02:06:22.530Z,0.00
2022-12-26T02:07:22.516Z,0.00
2022-12-26T02:08:22.545Z,0.00
2022-12-26T02:09:22.515Z,0.00
2022-12-26T02:10:22.478Z,0.00
2022-12-26T02:11:22.467Z,0.00
2022-12-26T02:12:34.933Z,0.00
2022-12-26T02:13:23.460Z,0.00
2022-12-26T02:14:22.417Z,0.00
2022-12-26T02:15:22.444Z,0.00
2022-12-26T02:16:22.477Z,0.00
2022-12-26T02:17:22.428Z,0.00
2022-12-26T02:18:22.428Z,0.00
2022-12-26T02:19:22.366Z,0.00
2022-12-26T02:20:22.363Z,0.00
2022-12-26T02:21:22.355Z,0.00
2022-12-26T02:22:22.365Z,0.00
2022-12-26T02:23:22.333Z,0.00
2022-12-26T02:24:22.329Z,0.00
2022-12-26T02:25:22.304Z,0.00
2022-12-26T02:26:22.303Z,0.00
2022-12-26T02:27:22.316Z,0.00
2022-12-26T02:28:22.381Z,0.00
2022-12-26T02:29:22.261Z,0.00
2022-12-26T02:30:22.295Z,0.00
2022-12-26T02:31:22.253Z,0.00
2022-12-26T02:32:22.218Z,0.00
2022-12-26T02:33:22.208Z,0.00
2022-12-26T02:34:22.209Z,0.00
2022-12-26T02:35:22.192Z,0.00
2022-12-26T02:36:22.195Z,0.00
2022-12-26T02:37:22.162Z,0.00
2022-12-26T02:38:22.145Z,0.00
2022-12-26T02:39:44.650Z,0.00
2022-12-26T02:40:23.120Z,0.00
2022-12-26T02:41:22.130Z,0.00
2022-12-26T02:42:22.135Z,0.00
2022-12-26T02:43:22.096Z,0.00
2022-12-26T02:44:22.088Z,0.00
2022-12-26T02:45:22.072Z,0.00
2022-12-26T02:46:22.097Z,0.00
2022-12-26T02:47:22.069Z,0.00
2022-12-26T02:48:22.027Z,0.00
2022-12-26T02:49:22.055Z,0.00
2022-12-26T02:50:22.006Z,0.00
2022-12-26T02:51:22.002Z,0.00
2022-12-26T02:52:22.043Z,0.00
2022-12-26T02:53:21.972Z,0.00
2022-12-26T02:54:21.957Z,0.00
2022-12-26T02:55:21.955Z,0.00
2022-12-26T02:56:21.949Z,0.00
2022-12-26T02:57:21.929Z,0.00
2022-12-26T02:58:21.952Z,0.00
2022-12-26T02:59:56.173Z,0.00
2022-12-26T03:00:22.884Z,0.00
2022-12-26T03:01:21.934Z,0.00
2022-12-26T03:02:22.015Z,0.00
2022-12-26T03:03:21.920Z,0.00
2022-12-26T03:04:21.903Z,0.00
2022-12-26T03:05:21.823Z,0.00
2022-12-26T03:06:21.822Z,0.00
2022-12-26T03:07:21.813Z,0.00
2022-12-26T03:08:21.795Z,0.00
2022-12-26T03:09:21.836Z,0.00
2022-12-26T03:10:21.768Z,0.00
2022-12-26T03:11:21.757Z,0.00
2022-12-26T03:12:21.765Z,0.00
2022-12-26T03:13:21.733Z,0.00
2022-12-26T03:14:21.717Z,0.00
2022-12-26T03:15:21.759Z,0.00
2022-12-26T03:16:21.761Z,0.00
2022-12-26T03:17:21.727Z,0.00
2022-12-26T03:18:57.705Z,0.00
2022-12-26T03:19:22.678Z,0.00
2022-12-26T03:20:21.679Z,0.00
2022-12-26T03:21:21.684Z,0.00
2022-12-26T03:22:21.635Z,0.00
2022-12-26T03:23:21.620Z,0.00
2022-12-26T03:24:21.609Z,0.00
2022-12-26T03:25:21.590Z,0.00
2022-12-26T03:26:21.620Z,0.00
2022-12-26T03:27:21.558Z,0.00
2022-12-26T03:28:21.574Z,0.00
2022-12-26T03:29:21.545Z,0.00
2022-12-26T03:30:21.543Z,0.00
2022-12-26T03:31:21.578Z,0.00
2022-12-26T03:32:21.561Z,0.00
2022-12-26T03:33:21.492Z,0.00
2022-12-26T03:34:21.500Z,0.00
2022-12-26T03:35:21.483Z,0.00
2022-12-26T03:36:21.483Z,0.00
2022-12-26T03:37:21.483Z,0.00
2022-12-26T03:38:21.483Z,0.00
2022-12-26T03:39:21.446Z,0.00
2022-12-26T03:40:21.436Z,0.00
2022-12-26T03:41:21.412Z,0.00
2022-12-26T03:42:21.396Z,0.00
2022-12-26T03:43:21.417Z,0.00
2022-12-26T03:44:21.373Z,0.00
2022-12-26T03:45:21.405Z,0.00
2022-12-26T03:46:21.424Z,0.00
2022-12-26T03:47:21.346Z,0.00
2022-12-26T03:48:21.356Z,0.00
2022-12-26T03:49:21.345Z,0.00
2022-12-26T03:50:21.310Z,0.00
2022-12-26T03:51:21.296Z,0.00
2022-12-26T03:52:21.295Z,0.00
2022-12-26T03:53:21.279Z,0.00
2022-12-26T03:54:21.285Z,0.00
2022-12-26T03:55:21.270Z,0.00
2022-12-26T03:56:21.237Z,0.00
2022-12-26T03:57:21.215Z,0.00
2022-12-26T03:58:21.223Z,0.00
2022-12-26T03:59:21.227Z,0.00
2022-12-26T04:00:21.234Z,0.00
2022-12-26T04:01:21.306Z,0.00
2022-12-26T04:02:21.290Z,0.00
2022-12-26T04:03:21.212Z,0.00
2022-12-26T04:04:21.151Z,0.00
2022-12-26T04:05:21.160Z,0.00
2022-12-26T04:06:21.186Z,0.00
2022-12-26T04:07:21.103Z,0.00
2022-12-26T04:08:21.086Z,0.00
2022-12-26T04:09:21.101Z,0.00
2022-12-26T04:10:21.071Z,0.00
2022-12-26T04:11:21.047Z,0.00
2022-12-26T04:12:21.067Z,0.00
2022-12-26T04:13:21.018Z,0.00
2022-12-26T04:14:21.071Z,0.00
2022-12-26T04:15:21.024Z,0.00
2022-12-26T04:16:21.121Z,0.00
2022-12-26T04:17:20.988Z,0.00
2022-12-26T04:18:21.011Z,0.00
2022-12-26T04:19:20.984Z,0.00
2022-12-26T04:20:20.955Z,0.00
2022-12-26T04:21:21.022Z,0.00
2022-12-26T04:22:20.979Z,0.00
2022-12-26T04:23:20.962Z,0.00
2022-12-26T04:24:20.988Z,0.00
2022-12-26T04:25:20.907Z,0.00
2022-12-26T04:26:21.910Z,0.00
2022-12-26T04:27:20.862Z,0.00
2022-12-26T04:28:20.897Z,0.00
2022-12-26T04:29:20.861Z,0.00
2022-12-26T04:30:20.832Z,0.00
2022-12-26T04:31:20.840Z,0.00
2022-12-26T04:32:20.835Z,0.00
2022-12-26T04:33:20.808Z,0.00
2022-12-26T04:34:20.837Z,0.00
2022-12-26T04:35:20.800Z,0.00
2022-12-26T04:36:20.768Z,0.00
2022-12-26T04:37:20.745Z,0.00
2022-12-26T04:38:20.752Z,0.00
2022-12-26T04:39:20.741Z,0.00
2022-12-26T04:40:20.743Z,0.00
2022-12-26T04:41:20.711Z,0.00
2022-12-26T04:42:20.697Z,0.00
2022-12-26T04:43:49.942Z,0.00
2022-12-26T04:44:21.685Z,0.00
2022-12-26T04:45:20.677Z,0.00
2022-12-26T04:46:20.751Z,0.00
2022-12-26T04:47:20.639Z,0.00
2022-12-26T04:48:20.623Z,0.00
2022-12-26T04:49:20.622Z,0.00
2022-12-26T04:50:20.592Z,0.00
2022-12-26T04:51:20.596Z,0.00
2022-12-26T04:52:20.594Z,0.00
2022-12-26T04:53:20.564Z,0.00
2022-12-26T04:54:20.570Z,0.00
2022-12-26T04:55:20.571Z,0.00
2022-12-26T04:56:20.533Z,0.00
2022-12-26T04:57:20.536Z,0.00
2022-12-26T04:58:20.544Z,0.00
2022-12-26T04:59:20.515Z,0.00
2022-12-26T05:00:20.513Z,0.00
2022-12-26T05:01:20.521Z,0.00
2022-12-26T05:02:20.616Z,0.00
2022-12-26T05:03:20.453Z,0.00
2022-12-26T05:04:20.447Z,0.00
2022-12-26T05:05:20.424Z,0.00
2022-12-26T05:06:20.414Z,0.00
2022-12-26T05:07:20.406Z,0.00
2022-12-26T05:08:20.432Z,0.00
2022-12-26T05:09:20.436Z,0.00
2022-12-26T05:10:20.373Z,0.00
2022-12-26T05:11:20.345Z,0.00
2022-12-26T05:12:20.340Z,0.00
2022-12-26T05:13:20.371Z,0.00
2022-12-26T05:14:20.322Z,0.00
2022-12-26T05:15:20.345Z,0.00
2022-12-26T05:16:20.331Z,0.00
2022-12-26T05:17:20.286Z,0.00
2022-12-26T05:18:20.280Z,0.00
2022-12-26T05:19:20.257Z,0.00
2022-12-26T05:20:20.252Z,0.00
2022-12-26T05:21:20.257Z,0.00
2022-12-26T05:22:20.227Z,0.00
2022-12-26T05:23:20.248Z,0.00
2022-12-26T05:24:20.217Z,0.00
2022-12-26T05:25:20.192Z,0.00
2022-12-26T05:26:20.204Z,0.00
2022-12-26T05:27:20.185Z,0.00
2022-12-26T05:28:20.162Z,0.00
2022-12-26T05:29:20.149Z,0.00
2022-12-26T05:30:20.143Z,0.00
2022-12-26T05:31:20.234Z,0.00
2022-12-26T05:32:20.151Z,0.00
2022-12-26T05:33:20.123Z,0.00
2022-12-26T05:34:20.089Z,0.00
2022-12-26T05:35:20.080Z,0.00
2022-12-26T05:36:20.059Z,0.00
2022-12-26T05:37:20.095Z,0.00
2022-12-26T05:38:20.070Z,0.00
2022-12-26T05:39:20.042Z,0.00
2022-12-26T05:40:20.010Z,0.00
2022-12-26T05:41:20.016Z,0.00
2022-12-26T05:42:19.996Z,0.00
2022-12-26T05:43:20.052Z,0.00
2022-12-26T05:44:19.963Z,0.00
2022-12-26T05:45:19.974Z,0.00
2022-12-26T05:46:19.994Z,0.00
2022-12-26T05:47:20.009Z,0.00
2022-12-26T05:48:19.923Z,0.00
2022-12-26T05:49:19.972Z,0.00
2022-12-26T05:50:19.924Z,0.00
2022-12-26T05:51:19.899Z,0.00
2022-12-26T05:52:19.886Z,0.00
2022-12-26T05:53:19.874Z,0.00
2022-12-26T05:54:19.914Z,0.00
2022-12-26T05:55:19.885Z,0.00
2022-12-26T05:56:19.827Z,0.00
2022-12-26T05:57:19.827Z,0.00
2022-12-26T05:58:19.804Z,0.00
2022-12-26T05:59:19.796Z,0.00
2022-12-26T06:00:19.849Z,0.00
2022-12-26T06:01:19.828Z,0.00
2022-12-26T06:02:19.865Z,0.00
2022-12-26T06:03:19.845Z,0.00
2022-12-26T06:04:19.741Z,0.00
2022-12-26T06:05:19.733Z,0.00
2022-12-26T06:06:19.747Z,0.00
2022-12-26T06:07:19.700Z,0.00
2022-12-26T06:08:19.697Z,0.00
2022-12-26T06:09:19.680Z,0.00
2022-12-26T06:10:19.668Z,0.00
2022-12-26T06:11:19.676Z,0.00
2022-12-26T06:12:19.674Z,0.00
2022-12-26T06:13:19.630Z,0.00
2022-12-26T06:14:19.629Z,0.00
2022-12-26T06:15:19.688Z,0.00
2022-12-26T06:16:19.786Z,0.00
2022-12-26T06:17:19.679Z,0.00
2022-12-26T06:18:19.569Z,0.00
2022-12-26T06:19:19.623Z,0.00
2022-12-26T06:20:19.559Z,0.00
2022-12-26T06:21:19.640Z,0.00
2022-12-26T06:22:19.530Z,0.00
2022-12-26T06:23:19.744Z,0.00
2022-12-26T06:24:19.547Z,0.00
2022-12-26T06:25:19.509Z,0.00
2022-12-26T06:26:19.517Z,0.00
2022-12-26T06:27:19.496Z,0.00
2022-12-26T06:28:19.476Z,0.00
2022-12-26T06:29:19.503Z,0.00
2022-12-26T06:30:19.447Z,0.00
2022-12-26T06:31:19.444Z,0.00
2022-12-26T06:32:19.462Z,0.00
2022-12-26T06:33:19.405Z,0.00
2022-12-26T06:34:19.433Z,0.00
2022-12-26T06:35:19.373Z,0.00
2022-12-26T06:36:19.376Z,0.00
2022-12-26T06:37:19.369Z,0.00
2022-12-26T06:38:19.364Z,0.00
2022-12-26T06:39:19.323Z,0.00
2022-12-26T06:40:19.384Z,0.00
2022-12-26T06:41:19.322Z,0.00
2022-12-26T06:42:19.301Z,0.00
2022-12-26T06:43:19.282Z,0.00
2022-12-26T06:44:19.415Z,0.00
2022-12-26T06:45:19.317Z,0.00
2022-12-26T06:46:19.341Z,0.00
2022-12-26T06:47:19.312Z,0.00
2022-12-26T06:48:19.257Z,0.00
2022-12-26T06:49:19.206Z,0.00
2022-12-26T06:50:19.208Z,0.00
2022-12-26T06:51:19.219Z,0.00
2022-12-26T06:52:19.229Z,0.00
2022-12-26T06:53:19.178Z,0.00
2022-12-26T06:54:19.167Z,0.00
2022-12-26T06:55:19.143Z,0.00
2022-12-26T06:56:19.143Z,0.00
2022-12-26T06:57:19.115Z,0.00
2022-12-26T06:58:19.200Z,0.00
2022-12-26T06:59:19.106Z,0.00
2022-12-26T07:00:19.097Z,0.00
2022-12-26T07:01:19.199Z,0.00
2022-12-26T07:02:19.156Z,0.00
2022-12-26T07:03:19.059Z,0.00
2022-12-26T07:04:19.057Z,0.00
2022-12-26T07:05:19.018Z,0.00
2022-12-26T07:06:19.010Z,4.00
2022-12-26T07:07:19.008Z,4.00
2022-12-26T07:08:19.002Z,4.00
2022-12-26T07:09:19.015Z,4.00
2022-12-26T07:10:18.966Z,0.00
2022-12-26T07:11:18.982Z,0.00
2022-12-26T07:12:18.938Z,0.00
2022-12-26T07:13:18.932Z,4.00
2022-12-26T07:14:18.931Z,4.00
2022-12-26T07:15:18.945Z,4.00
2022-12-26T07:16:19.083Z,4.00
2022-12-26T07:17:18.892Z,8.00
2022-12-26T07:18:18.887Z,8.00
2022-12-26T07:19:18.916Z,12.00
2022-12-26T07:20:18.870Z,12.00
2022-12-26T07:21:18.852Z,12.00
2022-12-26T07:22:18.845Z,12.00
2022-12-26T07:23:18.818Z,16.00
2022-12-26T07:24:18.801Z,16.00
2022-12-26T07:25:18.792Z,24.00
2022-12-26T07:26:18.792Z,24.00
2022-12-26T07:27:18.782Z,24.00
2022-12-26T07:28:18.760Z,28.00
2022-12-26T07:29:18.742Z,32.00
2022-12-26T07:30:18.731Z,32.00
2022-12-26T07:31:18.804Z,40.00
2022-12-26T07:32:18.729Z,40.00
2022-12-26T07:33:18.696Z,44.00
2022-12-26T07:34:18.683Z,52.00
2022-12-26T07:35:18.685Z,56.00
2022-12-26T07:36:18.661Z,64.00
2022-12-26T07:37:18.649Z,72.00
2022-12-26T07:38:18.675Z,72.00
2022-12-26T07:39:18.660Z,76.00
2022-12-26T07:40:18.602Z,80.00
2022-12-26T07:41:18.595Z,84.00
2022-12-26T07:42:18.614Z,88.00
2022-12-26T07:43:18.586Z,88.00
2022-12-26T07:44:18.592Z,88.00
2022-12-26T07:45:18.553Z,88.00
2022-12-26T07:46:18.633Z,84.00
2022-12-26T07:47:18.546Z,76.00
2022-12-26T07:48:18.525Z,72.00
2022-12-26T07:49:18.520Z,64.00
2022-12-26T07:50:18.536Z,64.00
2022-12-26T07:51:18.490Z,64.00
2022-12-26T07:52:18.477Z,64.00
2022-12-26T07:53:18.486Z,72.00
2022-12-26T07:54:18.456Z,76.00
2022-12-26T07:55:18.495Z,80.00
2022-12-26T07:56:18.440Z,92.00
2022-12-26T07:58:19.415Z,100.00
2022-12-26T07:59:18.420Z,108.00
2022-12-26T08:00:18.406Z,112.00
2022-12-26T08:01:18.536Z,120.00
2022-12-26T08:02:18.513Z,132.00
2022-12-26T08:03:18.487Z,148.00
2022-12-26T08:04:18.338Z,160.00
2022-12-26T08:05:18.340Z,168.00
2022-12-26T08:06:18.303Z,168.00
2022-12-26T08:07:18.316Z,168.00
2022-12-26T08:08:18.283Z,168.00
2022-12-26T08:09:18.305Z,180.00
2022-12-26T08:10:18.283Z,200.00
2022-12-26T08:11:18.276Z,216.00
2022-12-26T08:12:18.286Z,236.00
2022-12-26T08:13:18.278Z,252.00
2022-12-26T08:14:18.245Z,264.00
2022-12-26T08:15:18.237Z,264.00
2022-12-26T08:16:18.213Z,256.00
2022-12-26T08:17:18.271Z,248.00
2022-12-26T08:18:18.536Z,236.00
2022-12-26T08:19:18.149Z,216.00
2022-12-26T08:20:18.191Z,200.00
2022-12-26T08:21:18.205Z,204.00
2022-12-26T08:22:18.158Z,200.00
2022-12-26T08:23:18.140Z,208.00
2022-12-26T08:24:18.097Z,220.00
2022-12-26T08:25:20.223Z,248.00
2022-12-26T08:26:18.094Z,292.00
2022-12-26T08:27:18.072Z,332.00
2022-12-26T08:28:18.047Z,372.00
2022-12-26T08:29:18.085Z,424.00
2022-12-26T08:30:18.071Z,476.00
2022-12-26T08:31:18.084Z,516.00
2022-12-26T08:32:18.032Z,540.00
2022-12-26T08:33:17.999Z,568.00
2022-12-26T08:34:17.983Z,592.00
2022-12-26T08:35:17.994Z,632.00
2022-12-26T08:36:17.953Z,680.00
2022-12-26T08:37:17.967Z,700.00
2022-12-26T08:38:17.963Z,712.00
2022-12-26T08:39:17.945Z,764.00
2022-12-26T08:40:26.840Z,812.00
2022-12-26T08:41:18.914Z,832.00
2022-12-26T08:42:17.923Z,856.00
2022-12-26T08:43:32.005Z,868.00
2022-12-26T08:44:27.713Z,876.00
2022-12-26T08:45:18.868Z,860.00
2022-12-26T08:46:17.917Z,808.00
2022-12-26T08:47:17.868Z,768.00
2022-12-26T08:48:17.817Z,740.00
2022-12-26T08:49:17.810Z,700.00
2022-12-26T08:50:17.794Z,672.00
2022-12-26T08:51:17.785Z,648.00
2022-12-26T08:52:17.783Z,656.00
2022-12-26T08:53:17.784Z,700.00
2022-12-26T08:54:17.734Z,720.00
2022-12-26T08:55:17.746Z,784.00
2022-12-26T08:56:17.724Z,816.00
2022-12-26T08:57:17.712Z,848.00
2022-12-26T08:58:17.758Z,884.00
2022-12-26T08:59:17.720Z,900.00
2022-12-26T09:00:17.698Z,932.00
2022-12-26T09:01:17.996Z,936.00
2022-12-26T09:02:17.769Z,952.00
2022-12-26T09:03:17.686Z,932.00
2022-12-26T09:04:17.629Z,900.00
2022-12-26T09:05:17.642Z,876.00
2022-12-26T09:06:17.611Z,828.00
2022-12-26T09:07:17.705Z,764.00
2022-12-26T09:08:17.585Z,688.00
2022-12-26T09:09:17.576Z,640.00
2022-12-26T09:10:17.578Z,628.00
2022-12-26T09:11:17.548Z,632.00
2022-12-26T09:12:17.526Z,644.00
2022-12-26T09:13:17.538Z,652.00
2022-12-26T09:14:17.529Z,656.00
2022-12-26T09:15:17.499Z,668.00
2022-12-26T09:16:17.590Z,624.00
2022-12-26T09:17:17.519Z,576.00
2022-12-26T09:18:17.495Z,548.00
2022-12-26T09:19:17.477Z,540.00
2022-12-26T09:20:17.458Z,560.00
2022-12-26T09:21:17.445Z,652.00
2022-12-26T09:22:17.439Z,708.00
2022-12-26T09:23:17.399Z,776.00
2022-12-26T09:24:17.404Z,820.00
2022-12-26T09:25:17.380Z,820.00
2022-12-26T09:26:17.392Z,764.00
2022-12-26T09:27:17.421Z,744.00
2022-12-26T09:28:17.398Z,744.00
2022-12-26T09:29:17.351Z,760.00
2022-12-26T09:30:17.333Z,776.00
2022-12-26T09:31:17.419Z,808.00
2022-12-26T09:32:17.317Z,844.00
2022-12-26T09:33:17.352Z,936.00
2022-12-26T09:34:17.283Z,1020.00
2022-12-26T09:35:17.315Z,1088.00
2022-12-26T09:36:17.283Z,1208.00
2022-12-26T09:37:17.254Z,1344.00
2022-12-26T09:38:17.232Z,1456.00
2022-12-26T09:39:17.285Z,1572.00
2022-12-26T09:40:17.214Z,1584.00
2022-12-26T09:41:17.222Z,1512.00
2022-12-26T09:42:17.195Z,1424.00
2022-12-26T09:43:17.192Z,1372.00
2022-12-26T09:44:17.221Z,1328.00
2022-12-26T09:45:17.145Z,1268.00
2022-12-26T09:46:17.239Z,1244.00
2022-12-26T09:47:17.130Z,1316.00
2022-12-26T09:48:17.114Z,1368.00
2022-12-26T09:49:17.122Z,1404.00
2022-12-26T09:50:17.113Z,1404.00
2022-12-26T09:51:17.097Z,1368.00
2022-12-26T09:52:17.065Z,1348.00
2022-12-26T09:53:17.072Z,1364.00
2022-12-26T09:54:17.067Z,1392.00
2022-12-26T09:55:17.026Z,1380.00
2022-12-26T09:56:36.986Z,1388.00
2022-12-26T09:57:18.024Z,1376.00
2022-12-26T09:58:17.036Z,1380.00
2022-12-26T09:59:16.987Z,1404.00
2022-12-26T10:00:16.980Z,1392.00
2022-12-26T10:01:17.106Z,1276.00
2022-12-26T10:02:17.023Z,1212.00
2022-12-26T10:03:16.957Z,1224.00
2022-12-26T10:04:16.969Z,1296.00
2022-12-26T10:05:16.928Z,1368.00
2022-12-26T10:06:16.918Z,1416.00
2022-12-26T10:07:16.899Z,1388.00
2022-12-26T10:08:16.933Z,1356.00
2022-12-26T10:09:16.914Z,1360.00
2022-12-26T10:10:16.863Z,1368.00
2022-12-26T10:11:16.974Z,1376.00
2022-12-26T10:12:16.842Z,1368.00
2022-12-26T10:13:16.869Z,1416.00
2022-12-26T10:14:21.629Z,1512.00
2022-12-26T10:15:17.804Z,1548.00
2022-12-26T10:16:16.838Z,1568.00
2022-12-26T10:17:16.786Z,1572.00
2022-12-26T10:18:16.780Z,1648.00
2022-12-26T10:19:16.769Z,1712.00
2022-12-26T10:20:16.791Z,1704.00
2022-12-26T10:21:16.724Z,1660.00
2022-12-26T10:22:16.722Z,1680.00
2022-12-26T10:23:16.994Z,1744.00
2022-12-26T10:24:16.695Z,1700.00
2022-12-26T10:25:16.714Z,1620.00
2022-12-26T10:26:16.682Z,1588.00
2022-12-26T10:27:16.657Z,1644.00
2022-12-26T10:28:16.642Z,1736.00
2022-12-26T10:29:16.632Z,1724.00
2022-12-26T10:30:16.636Z,1704.00
2022-12-26T10:31:16.829Z,1800.00
2022-12-26T10:32:16.599Z,1992.00
2022-12-26T10:33:16.605Z,2048.00
2022-12-26T10:34:16.578Z,2040.00
2022-12-26T10:35:16.584Z,2044.00
2022-12-26T10:36:16.554Z,2052.00
2022-12-26T10:37:16.586Z,2072.00
2022-12-26T10:38:16.528Z,2072.00
2022-12-26T10:39:16.518Z,2072.00
2022-12-26T10:40:16.534Z,2072.00
2022-12-26T10:41:16.504Z,2048.00
2022-12-26T10:42:16.483Z,2048.00
2022-12-26T10:43:16.542Z,2024.00
2022-12-26T10:44:16.467Z,1976.00
2022-12-26T10:45:16.459Z,1960.00
2022-12-26T10:46:16.474Z,1948.00
2022-12-26T10:47:16.450Z,1960.00
2022-12-26T10:48:16.410Z,1976.00
2022-12-26T10:49:16.439Z,1964.00
2022-12-26T10:50:16.403Z,1956.00
2022-12-26T10:51:16.385Z,1960.00
2022-12-26T10:52:16.405Z,1904.00
2022-12-26T10:53:16.345Z,1860.00
2022-12-26T10:54:16.371Z,1848.00
2022-12-26T10:55:28.526Z,1856.00
2022-12-26T10:56:18.456Z,1876.00
2022-12-26T10:57:16.326Z,1900.00
2022-12-26T10:58:16.319Z,1932.00
2022-12-26T10:59:16.336Z,1948.00
2022-12-26T11:00:16.269Z,1940.00
2022-12-26T11:01:16.334Z,1956.00
2022-12-26T11:02:16.389Z,1980.00
2022-12-26T11:03:16.352Z,1984.00
2022-12-26T11:04:18.787Z,1988.00
2022-12-26T11:05:40.311Z,2008.00
2022-12-26T11:06:17.250Z,2012.00
2022-12-26T11:07:16.207Z,2032.00
2022-12-26T11:08:16.187Z,2056.00
2022-12-26T11:09:16.216Z,2084.00
2022-12-26T11:10:16.159Z,2100.00
2022-12-26T11:11:16.166Z,2088.00
2022-12-26T11:12:16.196Z,2060.00
2022-12-26T11:13:16.120Z,2024.00
2022-12-26T11:14:16.108Z,2012.00
2022-12-26T11:15:16.116Z,2004.00
2022-12-26T11:16:16.119Z,1988.00
2022-12-26T11:17:16.138Z,1992.00
2022-12-26T11:18:16.151Z,2000.00
2022-12-26T11:19:16.102Z,2012.00
2022-12-26T11:20:16.060Z,2032.00
2022-12-26T11:21:16.014Z,2056.00
2022-12-26T11:22:16.021Z,2080.00
2022-12-26T11:23:16.032Z,2096.00
2022-12-26T11:24:15.991Z,2092.00
2022-12-26T11:25:15.974Z,2096.00
2022-12-26T11:26:16.001Z,2056.00
2022-12-26T11:27:15.953Z,2040.00
2022-12-26T11:28:15.943Z,2024.00
2022-12-26T11:29:15.956Z,1984.00
2022-12-26T11:30:15.953Z,1928.00
2022-12-26T11:31:15.909Z,1888.00
2022-12-26T11:32:15.932Z,1856.00
2022-12-26T11:33:15.874Z,1896.00
2022-12-26T11:34:15.874Z,1908.00
2022-12-26T11:35:15.884Z,1920.00
2022-12-26T11:36:15.922Z,1952.00
2022-12-26T11:37:15.845Z,2008.00
2022-12-26T11:38:15.838Z,2052.00
2022-12-26T11:39:15.817Z,2092.00
2022-12-26T11:40:15.901Z,2108.00
2022-12-26T11:41:15.790Z,2128.00
2022-12-26T11:42:15.779Z,2168.00
2022-12-26T11:43:15.760Z,2212.00
2022-12-26T11:44:15.791Z,2252.00
2022-12-26T11:45:15.758Z,2264.00
2022-12-26T11:46:15.818Z,2240.00
2022-12-26T11:47:15.740Z,2208.00
2022-12-26T11:48:15.716Z,2176.00
2022-12-26T11:49:15.707Z,2156.00
2022-12-26T11:50:15.730Z,2144.00
2022-12-26T11:51:15.685Z,2132.00
2022-12-26T11:52:15.697Z,2136.00
2022-12-26T11:53:15.706Z,2136.00
2022-12-26T11:54:15.675Z,2116.00
2022-12-26T11:55:15.629Z,2080.00
2022-12-26T11:56:15.610Z,2068.00
2022-12-26T11:57:15.661Z,2064.00
2022-12-26T11:58:15.613Z,2032.00
2022-12-26T11:59:15.601Z,2008.00
2022-12-26T12:00:15.715Z,1996.00
2022-12-26T12:01:15.577Z,1976.00
2022-12-26T12:02:15.621Z,1948.00
2022-12-26T12:03:15.662Z,1948.00
2022-12-26T12:04:15.532Z,1932.00
2022-12-26T12:05:15.520Z,1840.00
2022-12-26T12:06:15.503Z,1776.00
2022-12-26T12:07:15.514Z,1756.00
2022-12-26T12:08:15.483Z,1716.00
2022-12-26T12:09:15.532Z,1668.00
2022-12-26T12:10:15.474Z,1636.00
2022-12-26T12:11:15.463Z,1624.00
2022-12-26T12:12:15.432Z,1648.00
2022-12-26T12:13:15.428Z,1696.00
2022-12-26T12:14:15.417Z,1748.00
2022-12-26T12:15:15.533Z,1756.00
2022-12-26T12:16:15.480Z,1744.00
2022-12-26T12:17:15.376Z,1776.00
2022-12-26T12:18:15.487Z,1780.00
2022-12-26T12:19:15.353Z,1788.00
2022-12-26T12:20:15.348Z,1864.00
2022-12-26T12:21:15.373Z,1896.00
2022-12-26T12:22:15.334Z,1852.00
2022-12-26T12:23:15.320Z,1800.00
2022-12-26T12:24:15.304Z,1768.00
2022-12-26T12:25:15.293Z,1744.00
2022-12-26T12:26:15.307Z,1732.00
2022-12-26T12:27:15.284Z,1704.00
2022-12-26T12:28:15.266Z,1640.00
2022-12-26T12:29:15.271Z,1592.00
2022-12-26T12:30:15.243Z,1548.00
2022-12-26T12:31:15.308Z,1520.00
2022-12-26T12:32:15.317Z,1452.00
2022-12-26T12:33:15.199Z,1376.00
2022-12-26T12:34:15.218Z,1364.00
2022-12-26T12:35:15.176Z,1368.00
2022-12-26T12:36:15.170Z,1368.00
2022-12-26T12:37:15.146Z,1340.00
2022-12-26T12:38:15.207Z,1304.00
2022-12-26T12:39:15.137Z,1248.00
2022-12-26T12:40:15.135Z,1184.00
2022-12-26T12:41:15.122Z,1108.00
2022-12-26T12:42:15.130Z,1072.00
2022-12-26T12:43:15.106Z,1008.00
2022-12-26T12:44:15.110Z,916.00
2022-12-26T12:45:15.057Z,836.00
2022-12-26T12:46:15.080Z,828.00
2022-12-26T12:47:15.052Z,896.00
2022-12-26T12:48:15.033Z,876.00
2022-12-26T12:49:15.027Z,892.00
2022-12-26T12:50:15.031Z,916.00
2022-12-26T12:51:15.001Z,976.00
2022-12-26T12:52:15.029Z,1180.00